Date,TemperatureHighF,TemperatureAvgF,TemperatureLowF,DewpointHighF,DewpointAvgF,DewpointLowF,HumidityHigh,HumidityAvg,HumidityLow,PressureMaxIn,PressureMinIn,WindSpeedMaxMPH,WindSpeedAvgMPH,GustSpeedMaxMPH,PrecipitationSumIn
2013-1-1,53.2,39.8,30.6,27.0,24.1,20.5,80,56,31,30.34,30.23,11,3,11,0.00
2013-1-2,60.4,44.2,30.2,28.1,23.4,15.3,71,47,18,30.25,30.14,8,3,8,0.00
2013-1-3,60.6,45.8,37.0,29.2,25.6,21.7,70,47,26,30.30,30.15,12,4,12,0.00
2013-1-4,56.8,43.1,29.1,34.4,27.2,21.8,87,56,29,30.39,30.29,7,2,7,0.00
2013-1-5,62.6,46.7,32.9,26.9,19.5,11.6,63,36,14,30.44,30.34,8,3,8,0.00
2013-1-6,63.5,49.4,36.9,23.2,14.5,3.9,53,28,10,30.33,30.11,10,3,10,0.00
2013-1-7,57.9,44.2,34.5,29.1,25.6,21.3,69,50,27,30.11,30.00,12,3,12,0.00
2013-1-8,65.5,49.1,34.3,28.6,21.0,6.3,64,37,10,30.26,30.06,9,3,9,0.00
2013-1-9,74.5,57.8,36.3,23.4,15.5,5.2,56,24,10,30.35,30.22,16,4,16,0.00
2013-1-10,68.2,53.4,0.0,37.7,16.4,-0.7,85,26,10,33.12,29.86,22,6,22,4.43
2013-1-11,48.2,36.0,28.6,34.7,23.5,9.6,94,64,25,30.09,29.92,19,2,22,0.17
2013-1-12,43.9,33.1,27.0,16.5,10.9,0.3,57,41,18,30.10,29.97,11,4,11,0.01
2013-1-13,46.6,33.5,25.9,12.1,8.4,-3.5,51,37,13,30.11,30.00,12,3,12,0.00
2013-1-14,41.5,29.9,18.9,13.3,6.7,-12.9,71,40,12,33.12,30.03,43,4,43,0.00
2013-1-15,45.0,33.4,23.2,9.3,-1.8,-13.6,53,26,10,30.31,30.17,17,5,17,0.01
2013-1-16,34.7,32.4,29.1,4.0,0.5,-1.6,33,25,21,30.32,30.28,7,2,7,0.00
2013-1-23,79.2,62.4,34.9,31.2,24.4,-33.5,39,24,4,30.27,30.17,50,6,50,2.93
2013-1-24,65.5,59.7,55.4,53.9,42.0,30.4,79,55,29,30.30,30.22,6,2,6,0.06
2013-1-25,72.1,62.0,54.9,48.7,46.0,42.9,71,57,39,30.25,30.07,7,2,7,0.00
2013-1-26,61.0,56.0,52.0,56.8,52.1,46.8,99,88,62,30.07,29.99,16,2,16,1.06
2013-1-27,62.4,55.2,47.7,53.6,49.6,45.7,99,83,55,30.09,30.00,15,2,15,0.01
2013-1-28,52.7,45.5,38.1,49.1,40.4,31.2,97,82,62,30.05,29.97,17,5,17,0.08
2013-1-29,50.5,39.7,32.0,33.6,27.4,18.8,93,65,31,30.22,30.03,15,4,15,0.02
2013-1-30,55.9,43.6,32.2,27.1,19.5,0.7,78,44,12,30.33,30.21,11,4,11,0.00
2013-1-31,62.8,48.7,34.0,35.3,27.0,22.0,71,45,23,30.27,30.14,8,2,8,0.00